Mesquite, Nevada
Current Conditions -  °F | °C
As of 8:55 AM on Thursday 25 Dec 2014 (Local Time) from KSGU Reporting Station
Clear Clear  
Wind Chill: 36°   Ceiling: Unl
Heat Index: 43°   Visibility: 10mi
Dew Point: 19°   Wind: 14mph
Humidity: 39%   Direction: 290°WNW
Pressure: 29.74"   Gusts: 21mph
Location:  36.8°N, 114.11°W
Report Text: KSGU 251655Z AUTO 29012G18KT 10SM CLR 06/M07 A2974 RMK AO1
Loading
Personal Weather Stations






























Interactive Weather Map New forecast layout! Learn more

10-Day Weather Forecast

Advertisements
Track Severe Weather on mobile